La Fargeville, New York
Current Conditions -  °F | °C
As of 9:56 PM on Saturday 20 Dec 2014 (Local Time) from KART Reporting Station
Clear Clear  
Wind Chill: 11°   Ceiling: Unl
Heat Index: 18°   Visibility: 10mi
Dew Point: 12°   Wind: 5mph
Humidity: 78%   Direction: 60°ENE
Pressure: 30.3"   Gusts: NA
Location:  44.2°N, 75.97°W
Report Text: KART 210256Z AUTO 06004KT 10SM CLR M08/M11 A3030 RMK AO2 SLP270 I1000 I3000 T10781111 58001
Loading
Personal Weather Stations






























Interactive Weather Map New forecast layout! Learn more

10-Day Weather Forecast

Advertisements
Track Severe Weather on mobile